createdAt,value
2018-05-23T00:02:01.541Z,7.43
2018-05-23T00:04:29.035Z,6.73
2018-05-23T00:06:57.341Z,6.37
2018-05-23T00:09:24.836Z,6.37
2018-05-23T00:11:52.361Z,7.83
2018-05-23T00:14:20.618Z,7.20
2018-05-23T00:16:48.138Z,7.07
2018-05-23T00:19:15.640Z,6.53
2018-05-23T00:21:43.175Z,6.80
2018-05-23T00:24:10.707Z,5.80
2018-05-23T00:26:38.240Z,5.80
2018-05-23T00:29:05.732Z,6.60
2018-05-23T00:31:33.260Z,7.50
2018-05-23T00:34:00.751Z,6.07
2018-05-23T00:36:28.270Z,6.33
2018-05-23T00:38:56.543Z,6.90
2018-05-23T00:41:24.064Z,6.83
2018-05-23T00:43:51.550Z,6.63
2018-05-23T00:46:19.079Z,6.83
2018-05-23T00:48:47.346Z,6.43
2018-05-23T00:51:14.852Z,7.03
2018-05-23T00:53:42.370Z,6.80
2018-05-23T00:56:09.867Z,6.23
2018-05-23T00:58:38.175Z,7.27
2018-05-23T01:01:06.530Z,6.90
2018-05-23T01:03:34.050Z,7.37
2018-05-23T01:06:01.552Z,6.47
2018-05-23T01:08:29.085Z,5.90
2018-05-23T01:10:56.579Z,6.57
2018-05-23T01:13:24.098Z,7.07
2018-05-23T01:15:51.590Z,6.97
2018-05-23T01:18:19.871Z,6.37
2018-05-23T01:20:48.130Z,6.53
2018-05-23T01:23:15.655Z,6.17
2018-05-23T01:25:43.143Z,7.10
2018-05-23T01:28:10.678Z,7.20
2018-05-23T01:30:38.927Z,7.20
2018-05-23T01:33:06.471Z,7.67
2018-05-23T01:35:33.962Z,7.00
2018-05-23T01:38:01.499Z,7.30
2018-05-23T01:40:29.753Z,6.83
2018-05-23T01:42:58.047Z,7.50
2018-05-23T01:45:25.558Z,6.50
2018-05-23T01:47:53.087Z,6.90
2018-05-23T01:50:21.346Z,5.90
2018-05-23T01:52:48.890Z,7.27
2018-05-23T01:55:16.443Z,6.40
2018-05-23T01:57:44.691Z,6.20
2018-05-23T02:00:12.175Z,6.63
2018-05-23T02:02:40.472Z,6.67
2018-05-23T02:05:07.980Z,7.00
2018-05-23T02:07:35.471Z,7.10
2018-05-23T02:10:02.992Z,7.07
2018-05-23T02:12:30.511Z,6.70
2018-05-23T02:14:58.017Z,7.07
2018-05-23T02:17:26.322Z,6.37
2018-05-23T02:19:53.829Z,6.30
2018-05-23T02:22:21.328Z,7.50
2018-05-23T02:24:48.864Z,6.70
2018-05-23T02:27:16.360Z,7.43
2018-05-23T02:29:43.865Z,6.50
2018-05-23T02:32:12.159Z,7.03
2018-05-23T02:34:40.412Z,7.10
2018-05-23T02:37:07.906Z,7.60
2018-05-23T02:39:36.190Z,8.47
2018-05-23T02:42:03.686Z,7.30
2018-05-23T02:44:31.193Z,7.73
2018-05-23T02:46:58.778Z,7.63
2018-05-23T02:49:26.232Z,8.80
2018-05-23T02:51:53.735Z,7.23
2018-05-23T02:54:21.263Z,8.40
2018-05-23T02:56:48.757Z,8.20
2018-05-23T02:59:16.256Z,8.40
2018-05-23T03:01:44.568Z,8.40
2018-05-23T03:04:12.063Z,8.80
2018-05-23T03:06:39.591Z,8.30
2018-05-23T03:09:07.860Z,7.70
2018-05-23T03:11:35.408Z,9.23
2018-05-23T03:14:02.907Z,8.00
2018-05-23T03:16:30.398Z,7.60
2018-05-23T03:18:58.762Z,8.07
2018-05-23T03:21:26.193Z,8.60
2018-05-23T03:23:53.687Z,7.87
2018-05-23T03:26:21.215Z,7.40
2018-05-23T03:28:48.724Z,9.43
2018-05-23T03:31:16.210Z,8.40
2018-05-23T03:33:43.743Z,8.77
2018-05-23T03:36:11.259Z,8.20
2018-05-23T03:38:38.771Z,8.43
2018-05-23T03:41:06.308Z,9.80
2018-05-23T03:43:33.817Z,8.20
2018-05-23T03:46:01.316Z,7.97
2018-05-23T03:48:28.855Z,8.50
2018-05-23T03:50:56.355Z,8.63
2018-05-23T03:53:23.838Z,8.43
2018-05-23T03:55:51.368Z,8.90
2018-05-23T03:58:18.875Z,7.77
2018-05-23T04:00:58.238Z,7.17
2018-05-23T04:03:37.416Z,7.53
2018-05-23T04:06:16.946Z,8.23
2018-05-23T04:08:44.448Z,7.70
2018-05-23T04:11:11.934Z,8.00
2018-05-23T04:13:39.463Z,8.07
2018-05-23T04:16:21.975Z,8.43
2018-05-23T04:18:49.512Z,7.90
2018-05-23T04:21:17.017Z,8.17
2018-05-23T04:23:44.516Z,8.33
2018-05-23T04:26:12.042Z,8.47
2018-05-23T04:28:39.539Z,8.67
2018-05-23T04:31:07.826Z,8.00
2018-05-23T04:33:36.105Z,8.80
2018-05-23T04:36:03.615Z,9.87
2018-05-23T04:38:34.065Z,9.03
2018-05-23T04:41:01.586Z,8.30
2018-05-23T04:43:29.071Z,8.70
2018-05-23T04:45:57.366Z,8.43
2018-05-23T04:48:26.615Z,8.93
2018-05-23T04:50:54.141Z,9.80
2018-05-23T04:53:23.162Z,9.63
2018-05-23T04:55:50.710Z,9.00
2018-05-23T04:58:18.335Z,9.60
2018-05-23T05:00:45.959Z,9.77
2018-05-23T05:03:14.246Z,9.33
2018-05-23T05:05:41.786Z,8.93
2018-05-23T05:08:09.295Z,9.37
2018-05-23T05:10:37.552Z,10.70
2018-05-23T05:13:05.089Z,9.80
2018-05-23T05:15:32.582Z,9.30
2018-05-23T05:18:00.476Z,9.80
2018-05-23T05:20:28.896Z,9.93
2018-05-23T05:22:56.592Z,9.50
2018-05-23T05:25:24.351Z,9.53
2018-05-23T05:27:52.039Z,9.87
2018-05-23T05:30:19.770Z,9.80
2018-05-23T05:32:47.338Z,10.60
2018-05-23T05:35:14.870Z,10.00
2018-05-23T05:37:42.367Z,12.57
2018-05-23T05:40:09.867Z,10.23
2018-05-23T05:42:37.411Z,11.43
2018-05-23T05:45:04.927Z,10.93
2018-05-23T05:47:32.455Z,12.23
2018-05-23T05:50:00.792Z,11.03
2018-05-23T05:52:29.075Z,12.97
2018-05-23T05:54:57.335Z,12.20
2018-05-23T05:57:24.866Z,13.40
2018-05-23T05:59:52.375Z,12.30
2018-05-23T06:02:19.903Z,12.03
2018-05-23T06:04:47.475Z,27.83
2018-05-23T06:07:15.522Z,33.60
2018-05-23T06:09:43.914Z,13.57
2018-05-23T06:12:11.392Z,12.27
2018-05-23T06:14:39.685Z,12.00
2018-05-23T06:17:07.208Z,10.90
2018-05-23T06:19:34.760Z,12.10
2018-05-23T06:22:02.283Z,11.03
2018-05-23T06:24:30.585Z,11.10
2018-05-23T06:26:58.290Z,11.03
2018-05-23T06:29:25.831Z,10.90
2018-05-23T06:31:53.393Z,11.90
2018-05-23T06:34:21.957Z,17.60
2018-05-23T06:36:49.734Z,16.77
2018-05-23T06:39:18.186Z,12.97
2018-05-23T06:41:45.788Z,12.37
2018-05-23T06:44:13.483Z,12.13
2018-05-23T06:46:41.085Z,10.90
2018-05-23T06:49:09.402Z,12.10
2018-05-23T06:51:37.035Z,11.03
2018-05-23T06:54:04.587Z,11.20
2018-05-23T06:56:33.133Z,11.30
2018-05-23T06:59:00.731Z,12.17
2018-05-23T07:01:28.244Z,11.53
2018-05-23T07:03:56.567Z,10.97
2018-05-23T07:06:24.202Z,13.03
2018-05-23T07:08:52.047Z,18.47
2018-05-23T07:11:19.721Z,20.80
2018-05-23T07:13:48.031Z,13.30
2018-05-23T07:16:15.687Z,13.93
2018-05-23T07:18:43.254Z,14.00
2018-05-23T07:21:10.762Z,15.50
2018-05-23T07:23:39.549Z,13.73
2018-05-23T07:26:07.204Z,15.13
2018-05-23T07:28:34.735Z,15.27
2018-05-23T07:31:03.051Z,13.60
2018-05-23T07:33:30.759Z,13.37
2018-05-23T07:35:58.326Z,13.27
2018-05-23T07:38:25.971Z,13.73
2018-05-23T07:40:53.438Z,14.20
2018-05-23T07:43:20.999Z,12.40
2018-05-23T07:45:48.644Z,14.03
2018-05-23T07:48:16.123Z,13.77
2018-05-23T07:50:43.710Z,12.83
2018-05-23T07:53:11.263Z,15.40
2018-05-23T07:55:39.019Z,14.40
2018-05-23T07:58:07.366Z,15.03
2018-05-23T08:00:34.891Z,13.83
2018-05-23T08:03:02.394Z,12.47
2018-05-23T08:05:29.902Z,13.87
2018-05-23T08:07:57.436Z,14.43
2018-05-23T08:10:25.126Z,12.63
2018-05-23T08:12:58.208Z,11.60
2018-05-23T08:15:28.909Z,13.07
2018-05-23T08:17:56.421Z,13.80
2018-05-23T08:20:29.925Z,11.13
2018-05-23T08:22:57.480Z,11.33
2018-05-23T08:25:25.768Z,12.03
2018-05-23T08:27:55.087Z,11.87
2018-05-23T08:30:32.986Z,10.87
2018-05-23T08:33:00.529Z,9.97
2018-05-23T08:35:28.073Z,10.63
2018-05-23T08:37:56.405Z,10.30
2018-05-23T08:40:23.977Z,10.17
2018-05-23T08:42:51.479Z,10.97
2018-05-23T08:45:18.984Z,10.40
2018-05-23T08:47:46.530Z,10.00
2018-05-23T08:50:14.025Z,10.00
2018-05-23T08:52:41.535Z,10.13
2018-05-23T08:55:09.073Z,9.37
2018-05-23T08:57:36.583Z,9.20
2018-05-23T09:00:04.075Z,9.17
2018-05-23T09:02:32.381Z,9.77
2018-05-23T09:05:12.464Z,9.80
2018-05-23T09:07:41.171Z,9.67
2018-05-23T09:10:08.731Z,10.07
2018-05-23T09:12:36.300Z,9.03
2018-05-23T09:15:03.772Z,8.73
2018-05-23T09:17:31.262Z,9.03
2018-05-23T09:19:58.752Z,9.10
2018-05-23T09:22:26.286Z,9.77
2018-05-23T09:24:53.786Z,10.00
2018-05-23T09:27:21.283Z,9.00
2018-05-23T09:29:48.831Z,9.20
2018-05-23T09:32:16.332Z,8.67
2018-05-23T09:34:44.590Z,8.73
2018-05-23T09:37:12.130Z,8.40
2018-05-23T09:39:39.627Z,8.30
2018-05-23T09:42:07.119Z,7.23
2018-05-23T09:44:34.679Z,7.70
2018-05-23T09:47:02.174Z,8.87
2018-05-23T09:49:30.446Z,8.57
2018-05-23T09:51:57.986Z,9.20
2018-05-23T09:54:25.492Z,8.40
2018-05-23T09:56:52.988Z,8.70
2018-05-23T09:59:20.547Z,8.40
2018-05-23T10:01:48.807Z,7.40
2018-05-23T10:04:16.299Z,8.10
2018-05-23T10:06:44.590Z,8.60
2018-05-23T10:09:12.842Z,7.30
2018-05-23T10:11:40.353Z,9.30
2018-05-23T10:14:08.657Z,8.13
2018-05-23T10:16:36.154Z,8.83
2018-05-23T10:19:03.656Z,8.13
2018-05-23T10:21:31.187Z,7.00
2018-05-23T10:23:58.692Z,8.60
2018-05-23T10:26:26.224Z,8.50
2018-05-23T10:28:53.734Z,8.90
2018-05-23T10:31:21.228Z,9.10
2018-05-23T10:33:49.482Z,7.80
2018-05-23T10:36:17.003Z,7.50
2018-05-23T10:38:44.495Z,8.57
2018-05-23T10:41:11.978Z,8.10
2018-05-23T10:43:39.511Z,7.97
2018-05-23T10:46:07.845Z,7.90
2018-05-23T10:48:35.271Z,8.10
2018-05-23T10:51:03.558Z,8.37
2018-05-23T10:53:31.949Z,8.30
2018-05-23T10:56:00.219Z,8.50
2018-05-23T10:58:27.885Z,9.70
2018-05-23T11:00:55.378Z,8.23
2018-05-23T11:03:23.680Z,8.63
2018-05-23T11:05:51.223Z,9.30
2018-05-23T11:08:18.829Z,9.73
2018-05-23T11:10:46.362Z,9.93
2018-05-23T11:13:13.897Z,9.47
2018-05-23T11:15:41.444Z,9.80
2018-05-23T11:18:09.090Z,10.60
2018-05-23T11:20:37.446Z,11.07
2018-05-23T11:23:04.993Z,9.97
2018-05-23T11:25:32.478Z,9.53
2018-05-23T11:28:00.069Z,10.00
2018-05-23T11:30:27.771Z,10.37
2018-05-23T11:32:56.063Z,10.20
2018-05-23T11:35:24.422Z,10.20
2018-05-23T11:37:51.996Z,11.00
2018-05-23T11:40:19.500Z,10.47
2018-05-23T11:42:47.847Z,11.43
2018-05-23T11:45:15.346Z,10.73
2018-05-23T11:47:42.847Z,10.50
2018-05-23T11:50:10.399Z,12.53
2018-05-23T11:52:38.690Z,10.73
2018-05-23T11:55:06.965Z,10.40
2018-05-23T11:57:34.499Z,11.53
2018-05-23T12:00:02.115Z,10.37
2018-05-23T12:02:30.411Z,11.50
2018-05-23T12:04:58.682Z,9.83
2018-05-23T12:07:26.179Z,10.90
2018-05-23T12:09:54.471Z,10.20
2018-05-23T12:12:21.964Z,10.93
2018-05-23T12:14:49.476Z,10.50
2018-05-23T12:17:17.168Z,11.97
2018-05-23T12:19:45.480Z,11.23
2018-05-23T12:22:13.078Z,11.97
2018-05-23T12:24:40.612Z,10.33
2018-05-23T12:27:11.547Z,11.00
2018-05-23T12:29:39.035Z,11.80
2018-05-23T12:32:07.334Z,11.40
2018-05-23T12:34:34.824Z,10.90
2018-05-23T12:37:02.322Z,11.13
2018-05-23T12:39:29.904Z,10.80
2018-05-23T12:41:57.525Z,10.90
2018-05-23T12:44:25.111Z,11.20
2018-05-23T12:46:52.759Z,10.87
2018-05-23T12:49:20.280Z,10.43
2018-05-23T12:51:47.785Z,11.57
2018-05-23T12:54:15.380Z,11.57
2018-05-23T12:56:42.924Z,11.53
2018-05-23T12:59:17.214Z,10.60
2018-05-23T13:01:44.707Z,10.30
2018-05-23T13:04:12.243Z,10.77
2018-05-23T13:06:39.734Z,9.87
2018-05-23T13:09:07.270Z,9.80
2018-05-23T13:11:34.780Z,10.43
2018-05-23T13:14:02.399Z,9.60
2018-05-23T13:16:29.936Z,10.23
2018-05-23T13:18:57.423Z,9.03
2018-05-23T13:21:25.731Z,10.83
2018-05-23T13:23:53.993Z,11.27
2018-05-23T13:26:21.496Z,11.10
2018-05-23T13:28:49.034Z,11.87
2018-05-23T13:31:16.537Z,15.60
2018-05-23T13:33:44.932Z,12.33
2018-05-23T13:36:12.672Z,11.50
2018-05-23T13:38:40.955Z,10.70
2018-05-23T13:41:08.448Z,10.97
2018-05-23T13:43:36.758Z,10.57
2018-05-23T13:46:04.254Z,10.20
2018-05-23T13:48:31.744Z,9.73
2018-05-23T13:50:59.274Z,20.27
2018-05-23T13:53:26.785Z,11.20
2018-05-23T13:55:54.286Z,11.63
2018-05-23T13:58:22.575Z,9.60
2018-05-23T14:00:50.840Z,9.90
2018-05-23T14:03:18.348Z,10.10
2018-05-23T14:05:46.643Z,10.60
2018-05-23T14:08:14.130Z,9.87
2018-05-23T14:10:41.632Z,10.23
2018-05-23T14:13:09.171Z,11.40
2018-05-23T14:15:36.664Z,11.07
2018-05-23T14:18:04.158Z,9.10
2018-05-23T14:20:31.686Z,9.60
2018-05-23T14:22:59.184Z,9.00
2018-05-23T14:25:26.680Z,11.07
2018-05-23T14:27:54.207Z,11.60
2018-05-23T14:30:21.690Z,8.73
2018-05-23T14:32:49.186Z,7.80
2018-05-23T14:35:16.707Z,7.30
2018-05-23T14:37:44.199Z,7.93
2018-05-23T14:40:11.685Z,8.40
2018-05-23T14:42:39.210Z,7.20
2018-05-23T14:45:06.708Z,7.37
2018-05-23T14:47:34.231Z,6.93
2018-05-23T14:50:02.617Z,7.27
2018-05-23T14:52:30.042Z,7.07
2018-05-23T14:54:57.535Z,6.77
2018-05-23T14:57:25.067Z,6.50
2018-05-23T14:59:52.571Z,6.07
2018-05-23T15:02:20.130Z,6.53
2018-05-23T15:04:50.288Z,6.40
2018-05-23T15:07:17.786Z,7.03
2018-05-23T15:09:45.308Z,5.33
2018-05-23T15:12:12.798Z,5.77
2018-05-23T15:14:40.295Z,5.90
2018-05-23T15:17:08.591Z,5.80
2018-05-23T15:19:36.092Z,6.67
2018-05-23T15:22:03.582Z,6.70
2018-05-23T15:24:31.130Z,6.50
2018-05-23T15:26:58.610Z,6.63
2018-05-23T15:29:26.103Z,7.13
2018-05-23T15:31:53.628Z,7.23
2018-05-23T15:34:21.127Z,7.50
2018-05-23T15:36:48.620Z,6.47
2018-05-23T15:39:16.152Z,7.17
2018-05-23T15:41:43.680Z,7.70
2018-05-23T15:44:11.151Z,7.30
2018-05-23T15:46:39.466Z,6.77
2018-05-23T15:49:06.964Z,7.80
2018-05-23T15:51:34.470Z,7.00
2018-05-23T15:54:01.994Z,5.87
2018-05-23T15:56:29.475Z,5.47
2018-05-23T15:58:57.008Z,4.83
2018-05-23T16:01:24.501Z,4.80
2018-05-23T16:03:51.987Z,4.70
2018-05-23T16:06:19.523Z,5.03
2018-05-23T16:08:47.018Z,5.10
2018-05-23T16:11:14.523Z,5.87
2018-05-23T16:13:42.046Z,5.97
2018-05-23T16:16:11.475Z,7.03
2018-05-23T16:18:38.972Z,6.83
2018-05-23T16:21:06.518Z,8.00
2018-05-23T16:23:34.003Z,7.77
2018-05-23T16:26:01.496Z,7.77
2018-05-23T16:28:29.030Z,8.57
2018-05-23T16:30:56.523Z,12.00
2018-05-23T16:33:24.025Z,12.97
2018-05-23T16:35:52.322Z,8.50
2018-05-23T16:38:19.819Z,8.37
2018-05-23T16:40:47.312Z,8.77
2018-05-23T16:43:14.836Z,8.67
2018-05-23T16:45:42.352Z,8.23
2018-05-23T16:48:09.879Z,8.60
2018-05-23T16:50:37.369Z,8.17
2018-05-23T16:53:04.855Z,7.73
2018-05-23T16:55:32.377Z,7.90
2018-05-23T16:58:00.634Z,8.00
2018-05-23T17:00:28.123Z,8.00
2018-05-23T17:02:55.655Z,9.00
2018-05-23T17:05:23.140Z,7.53
2018-05-23T17:07:50.642Z,8.60
2018-05-23T17:10:18.939Z,8.47
2018-05-23T17:12:47.195Z,7.63
2018-05-23T17:15:14.687Z,8.40
2018-05-23T17:17:42.985Z,12.37
2018-05-23T17:20:11.427Z,47.33
2018-05-23T17:22:38.936Z,10.73
2018-05-23T17:25:06.432Z,10.40
2018-05-23T17:27:33.950Z,9.77
2018-05-23T17:30:01.502Z,10.67
2018-05-23T17:32:28.996Z,9.60
2018-05-23T17:34:56.482Z,9.40
2018-05-23T17:37:24.016Z,9.63
2018-05-23T17:39:51.506Z,9.80
2018-05-23T17:42:18.995Z,9.97
2018-05-23T17:44:46.527Z,9.63
2018-05-23T17:47:14.028Z,10.50
2018-05-23T17:49:41.523Z,10.00
2018-05-23T17:52:09.815Z,9.10
2018-05-23T17:54:38.096Z,10.93
2018-05-23T17:57:06.534Z,10.27
2018-05-23T17:59:34.791Z,10.70
2018-05-23T18:02:02.286Z,14.30
2018-05-23T18:04:29.802Z,32.37
2018-05-23T18:06:57.561Z,16.50
2018-05-23T18:09:25.076Z,12.43
2018-05-23T18:11:53.344Z,12.73
2018-05-23T18:14:21.781Z,11.53
2018-05-23T18:16:49.374Z,11.73
2018-05-23T18:19:30.860Z,11.60
2018-05-23T18:21:59.390Z,11.43
2018-05-23T18:24:26.908Z,10.90
2018-05-23T18:26:54.520Z,11.80
2018-05-23T18:29:22.138Z,11.20
2018-05-23T18:31:49.687Z,12.23
2018-05-23T18:34:17.210Z,11.20
2018-05-23T18:36:44.703Z,11.43
2018-05-23T18:39:12.199Z,11.60
2018-05-23T18:41:40.533Z,11.70
2018-05-23T18:44:08.044Z,12.77
2018-05-23T18:46:35.569Z,11.83
2018-05-23T18:49:03.118Z,13.00
2018-05-23T18:51:31.387Z,12.37
2018-05-23T18:53:58.894Z,12.40
2018-05-23T18:56:26.444Z,12.90
2018-05-23T18:58:54.729Z,12.87
2018-05-23T19:01:23.008Z,27.30
2018-05-23T19:03:50.555Z,16.93
2018-05-23T19:06:18.068Z,21.07
2018-05-23T19:08:46.378Z,13.60
2018-05-23T19:11:13.888Z,14.03
2018-05-23T19:13:41.393Z,13.57
2018-05-23T19:16:09.727Z,12.53
2018-05-23T19:18:37.246Z,13.70
2018-05-23T19:21:05.531Z,14.20
2018-05-23T19:23:33.851Z,15.43
2018-05-23T19:26:01.366Z,15.03
2018-05-23T19:28:29.667Z,15.90
2018-05-23T19:30:57.207Z,16.47
2018-05-23T19:33:24.720Z,16.70
2018-05-23T19:35:52.282Z,22.97
2018-05-23T19:38:19.823Z,27.33
2018-05-23T19:40:47.335Z,18.87
2018-05-23T19:43:14.852Z,18.27
2018-05-23T19:45:42.394Z,18.97
2018-05-23T19:48:10.653Z,18.30
2018-05-23T19:50:38.147Z,17.30
2018-05-23T19:53:06.582Z,17.97
2018-05-23T19:55:34.262Z,20.53
2018-05-23T19:58:01.882Z,19.07
2018-05-23T20:00:29.577Z,17.37
2018-05-23T20:02:57.202Z,16.60
2018-05-23T20:05:24.832Z,15.20
2018-05-23T20:07:52.506Z,14.03
2018-05-23T20:10:20.143Z,14.60
2018-05-23T20:12:47.704Z,14.00
2018-05-23T20:15:15.231Z,19.60
2018-05-23T20:17:42.748Z,25.10
2018-05-23T20:20:10.261Z,15.37
2018-05-23T20:22:37.814Z,14.40
2018-05-23T20:25:06.075Z,12.43
2018-05-23T20:27:33.575Z,12.80
2018-05-23T20:30:01.928Z,11.33
2018-05-23T20:32:29.423Z,12.83
2018-05-23T20:34:57.431Z,12.10
2018-05-23T20:37:24.911Z,13.13
2018-05-23T20:39:52.404Z,12.30
2018-05-23T20:42:19.895Z,11.93
2018-05-23T20:44:47.423Z,13.23
2018-05-23T20:47:14.910Z,19.50
2018-05-23T20:49:42.445Z,25.83
2018-05-23T20:52:10.702Z,13.30
2018-05-23T20:54:38.200Z,12.10
2018-05-23T20:57:05.734Z,12.50
2018-05-23T20:59:33.338Z,11.67
2018-05-23T21:02:00.963Z,11.43
2018-05-23T21:04:28.611Z,11.90
2018-05-23T21:06:56.217Z,11.87
2018-05-23T21:09:24.719Z,11.17
2018-05-23T21:11:52.394Z,10.47
2018-05-23T21:14:20.004Z,10.80
2018-05-23T21:16:47.692Z,11.90
2018-05-23T21:19:15.340Z,11.50
2018-05-23T21:21:42.989Z,12.17
2018-05-23T21:24:10.690Z,11.67
2018-05-23T21:26:38.222Z,11.90
2018-05-23T21:29:05.930Z,12.60
2018-05-23T21:31:35.017Z,11.93
2018-05-23T21:34:03.525Z,12.60
2018-05-23T21:36:31.164Z,12.63
2018-05-23T21:38:58.684Z,24.33
2018-05-23T21:41:27.022Z,18.97
2018-05-23T21:43:54.796Z,13.47
2018-05-23T21:46:22.621Z,13.40
2018-05-23T21:48:51.129Z,12.03
2018-05-23T21:51:18.945Z,12.40
2018-05-23T21:53:46.687Z,12.83
2018-05-23T21:56:14.370Z,13.50
2018-05-23T21:58:42.058Z,12.50
2018-05-23T22:01:14.304Z,13.03
2018-05-23T22:03:42.582Z,12.53
2018-05-23T22:06:11.418Z,12.70
2018-05-23T22:08:39.214Z,12.53
2018-05-23T22:11:06.955Z,14.00
2018-05-23T22:13:34.491Z,12.60
2018-05-23T22:16:01.999Z,12.50
2018-05-23T22:18:29.530Z,12.57
2018-05-23T22:20:57.031Z,11.67
2018-05-23T22:23:25.302Z,12.50
2018-05-23T22:25:52.938Z,12.30
2018-05-23T22:28:20.436Z,13.37
2018-05-23T22:30:47.934Z,13.37
2018-05-23T22:33:16.239Z,12.47
2018-05-23T22:35:43.740Z,12.47
2018-05-23T22:38:11.234Z,12.13
2018-05-23T22:40:38.765Z,12.33
2018-05-23T22:43:06.267Z,12.50
2018-05-23T22:45:33.776Z,12.50
2018-05-23T22:48:02.092Z,12.57
2018-05-23T22:50:29.582Z,12.23
2018-05-23T22:52:57.084Z,13.67
2018-05-23T22:55:24.610Z,12.60
2018-05-23T22:57:52.102Z,12.43
2018-05-23T23:00:22.535Z,12.63
2018-05-23T23:02:50.081Z,13.83
2018-05-23T23:05:18.459Z,12.90
2018-05-23T23:07:46.723Z,13.20
2018-05-23T23:10:14.282Z,13.20
2018-05-23T23:12:41.783Z,11.90
2018-05-23T23:15:10.051Z,13.50
2018-05-23T23:17:37.595Z,12.93
2018-05-23T23:20:05.099Z,13.40
2018-05-23T23:22:38.334Z,13.60
2018-05-23T23:25:05.826Z,13.87
2018-05-23T23:27:33.379Z,13.93
2018-05-23T23:30:00.908Z,14.40
2018-05-23T23:32:28.415Z,14.10
2018-05-23T23:34:56.419Z,12.97
2018-05-23T23:37:23.914Z,13.80
2018-05-23T23:39:51.425Z,13.60
2018-05-23T23:42:19.730Z,13.03
2018-05-23T23:44:47.226Z,14.30
2018-05-23T23:47:14.730Z,12.83
2018-05-23T23:49:42.285Z,13.40
2018-05-23T23:52:09.793Z,13.47
2018-05-23T23:54:38.084Z,14.50
2018-05-23T23:57:05.603Z,14.17
2018-05-23T23:59:33.111Z,13.67
